Terminal Aerodrome Forecast
Issued by NWS Tampa Bay Area, FL

Home | Current Version | Previous Version | Text Only | Print | Product List | Glossary On
Versions: 1 2 3 4 5 6 7 8 9 10 11 12 13 14 15 16 17 18 19 20 21 22 23 24
000
FTUS42 KTBW 281700
TAFSRQ
TAF
KSRQ 281740Z 2818/0118 07009KT P6SM VCSH OVC010
     FM282000 07007KT 6SM BR BKN025
     FM010100 08009KT P6SM BKN020
     FM010500 07006KT 5SM BR BKN012
     FM011300 09007KT P6SM SCT015 BKN100=

USA.gov is the U.S. government's official web portal to all federal, state and local government web resources and services.